createdAt,value
2023-05-10T00:00:33.766Z,9.50
2023-05-10T00:05:42.358Z,13.80
2023-05-10T00:10:42.346Z,9.10
2023-05-10T00:15:41.940Z,9.10
2023-05-10T00:20:41.365Z,9.80
2023-05-10T00:25:41.284Z,9.80
2023-05-10T00:30:40.135Z,8.30
2023-05-10T00:35:39.651Z,10.90
2023-05-10T00:40:39.378Z,9.30
2023-05-10T00:45:44.102Z,10.10
2023-05-10T00:50:45.884Z,11.10
2023-05-10T00:55:45.200Z,11.90
2023-05-10T01:00:48.597Z,11.80
2023-05-10T01:05:48.175Z,10.60
2023-05-10T01:10:50.335Z,8.30
2023-05-10T01:15:50.645Z,9.40
2023-05-10T01:20:58.316Z,7.70
2023-05-10T01:32:25.523Z,9.90
2023-05-10T01:37:34.197Z,7.30
2023-05-10T01:42:43.168Z,9.10
2023-05-10T01:47:49.355Z,8.70
2023-05-10T01:52:53.760Z,5.70
2023-05-10T01:58:05.196Z,8.10
2023-05-10T02:03:10.784Z,7.50
2023-05-10T02:08:14.085Z,9.40
2023-05-10T02:13:15.300Z,5.50
2023-05-10T02:18:16.671Z,8.50
2023-05-10T02:23:17.748Z,7.20
2023-05-10T02:28:19.785Z,6.00
2023-05-10T02:33:20.627Z,7.10
2023-05-10T02:38:24.158Z,6.60
2023-05-10T02:43:26.908Z,6.40
2023-05-10T02:48:26.087Z,8.10
2023-05-10T02:53:35.584Z,6.70
2023-05-10T02:58:35.118Z,7.80
2023-05-10T03:03:34.488Z,9.00
2023-05-10T03:08:34.715Z,8.20
2023-05-10T03:13:38.634Z,6.40
2023-05-10T03:18:46.784Z,7.70
2023-05-10T03:23:53.877Z,6.20
2023-05-10T03:28:55.021Z,8.20
2023-05-10T03:33:55.648Z,8.50
2023-05-10T03:38:58.066Z,7.70
2023-05-10T03:43:57.866Z,9.50
2023-05-10T03:48:57.127Z,6.50
2023-05-10T03:53:57.329Z,7.50
2023-05-10T03:58:56.297Z,9.00
2023-05-10T04:03:55.731Z,11.50
2023-05-10T04:08:55.161Z,8.20
2023-05-10T04:13:54.904Z,10.00
2023-05-10T04:18:54.258Z,8.30
2023-05-10T04:23:53.630Z,6.60
2023-05-10T04:28:54.023Z,7.80
2023-05-10T04:33:54.564Z,10.40
2023-05-10T04:38:55.108Z,7.80
2023-05-10T04:43:54.718Z,8.20
2023-05-10T04:48:54.409Z,8.80
2023-05-10T04:54:05.141Z,6.90
2023-05-10T04:59:06.106Z,6.80
2023-05-10T05:04:05.170Z,5.80
2023-05-10T05:09:04.989Z,5.80
2023-05-10T05:14:04.653Z,5.70
2023-05-10T05:19:04.682Z,6.10
2023-05-10T05:24:04.026Z,6.60
2023-05-10T05:29:04.363Z,10.00
2023-05-10T05:34:03.383Z,8.40
2023-05-10T05:39:02.862Z,6.80
2023-05-10T05:44:02.094Z,7.40
2023-05-10T05:49:02.651Z,7.00
2023-05-10T05:54:06.756Z,6.00
2023-05-10T05:59:22.274Z,5.70
2023-05-10T06:04:22.449Z,7.30
2023-05-10T06:09:22.238Z,4.00
2023-05-10T06:14:22.402Z,6.10
2023-05-10T06:19:22.408Z,7.00
2023-05-10T06:24:22.284Z,8.90
2023-05-10T06:29:21.261Z,10.80
2023-05-10T06:34:20.578Z,5.10
2023-05-10T06:39:20.137Z,6.60
2023-05-10T06:44:21.011Z,5.30
2023-05-10T06:49:20.521Z,5.00
2023-05-10T06:54:19.906Z,5.10
2023-05-10T06:59:20.560Z,5.80
2023-05-10T07:04:20.386Z,4.20
2023-05-10T07:09:20.591Z,6.20
2023-05-10T07:14:20.458Z,6.70
2023-05-10T07:19:22.870Z,6.10
2023-05-10T07:24:22.086Z,5.00
2023-05-10T07:29:29.942Z,6.70
2023-05-10T07:34:31.208Z,4.90
2023-05-10T07:39:30.379Z,5.40
2023-05-10T07:44:30.716Z,3.70
2023-05-10T07:49:30.432Z,5.00
2023-05-10T07:54:29.462Z,4.00
2023-05-10T07:59:30.708Z,3.90
2023-05-10T08:04:30.105Z,3.40
2023-05-10T08:09:29.071Z,3.60
2023-05-10T08:14:29.471Z,5.00
2023-05-10T08:19:29.705Z,5.10
2023-05-10T08:24:28.632Z,5.50
2023-05-10T08:29:30.403Z,4.20
2023-05-10T08:34:32.171Z,4.10
2023-05-10T08:39:32.641Z,3.30
2023-05-10T08:44:33.059Z,4.80
2023-05-10T08:49:35.769Z,5.90
2023-05-10T08:54:36.624Z,4.40
2023-05-10T08:59:36.188Z,4.60
2023-05-10T09:04:36.375Z,4.80
2023-05-10T09:09:36.142Z,5.40
2023-05-10T09:14:39.258Z,4.60
2023-05-10T09:19:38.299Z,6.10
2023-05-10T09:24:38.219Z,5.50
2023-05-10T09:29:46.545Z,4.00
2023-05-10T09:34:46.240Z,4.10
2023-05-10T09:39:45.408Z,3.50
2023-05-10T09:44:44.604Z,4.40
2023-05-10T09:49:45.654Z,3.80
2023-05-10T09:54:57.039Z,4.60
2023-05-10T09:59:58.795Z,5.70
2023-05-10T10:04:59.246Z,5.80
2023-05-10T10:10:01.560Z,4.30
2023-05-10T10:15:02.457Z,4.10
2023-05-10T10:20:04.993Z,3.60
2023-05-10T10:25:05.006Z,6.60
2023-05-10T10:30:28.501Z,4.10
2023-05-10T10:35:28.559Z,5.30
2023-05-10T10:40:40.796Z,5.60
2023-05-10T10:45:43.822Z,4.50
2023-05-10T10:50:58.394Z,7.10
2023-05-10T10:56:11.060Z,7.00
2023-05-10T11:01:19.463Z,5.20
2023-05-10T11:06:34.769Z,3.70
2023-05-10T11:11:34.705Z,3.80
2023-05-10T11:16:45.273Z,3.20
2023-05-10T11:21:55.258Z,4.70
2023-05-10T11:26:56.262Z,5.30
2023-05-10T11:31:58.756Z,8.50
2023-05-10T11:37:00.191Z,3.80
2023-05-10T11:42:01.318Z,5.90
2023-05-10T11:47:02.667Z,5.20
2023-05-10T11:52:12.440Z,4.30
2023-05-10T11:57:11.153Z,4.40
2023-05-10T12:02:09.954Z,4.60
2023-05-10T12:07:09.965Z,4.70
2023-05-10T12:12:09.579Z,5.30
2023-05-10T12:17:08.982Z,7.10
2023-05-10T12:22:13.026Z,5.40
2023-05-10T12:27:14.000Z,6.60
2023-05-10T12:32:13.401Z,5.60
2023-05-10T12:37:13.929Z,7.90
2023-05-10T12:42:13.317Z,5.40
2023-05-10T12:47:13.371Z,4.30
2023-05-10T12:52:12.471Z,5.10
2023-05-10T12:57:11.865Z,5.40
2023-05-10T13:02:13.370Z,4.90
2023-05-10T13:07:12.915Z,5.00
2023-05-10T13:12:14.439Z,5.10
2023-05-10T13:17:14.704Z,4.30
2023-05-10T13:22:17.154Z,5.20
2023-05-10T13:27:19.527Z,4.60
2023-05-10T13:32:20.135Z,5.20
2023-05-10T13:37:22.400Z,5.30
2023-05-10T13:42:22.968Z,5.70
2023-05-10T13:47:25.094Z,4.90
2023-05-10T13:52:25.544Z,4.90
2023-05-10T13:57:26.295Z,5.10
2023-05-10T14:02:28.649Z,5.70
2023-05-10T14:07:29.181Z,4.30
2023-05-10T14:12:28.550Z,7.40
2023-05-10T14:17:28.848Z,4.50
2023-05-10T14:22:29.175Z,3.90
2023-05-10T14:27:29.725Z,4.70
2023-05-10T14:32:33.447Z,6.30
2023-05-10T14:37:33.654Z,4.00
2023-05-10T14:42:33.892Z,5.50
2023-05-10T14:47:34.411Z,7.40
2023-05-10T14:52:36.207Z,4.00
2023-05-10T14:57:35.873Z,6.80
2023-05-10T15:02:37.875Z,5.70
2023-05-10T15:07:37.843Z,6.50
2023-05-10T15:12:37.119Z,5.80
2023-05-10T15:17:36.659Z,6.80
2023-05-10T15:22:39.387Z,5.20
2023-05-10T15:27:39.264Z,4.20
2023-05-10T15:32:41.315Z,4.80
2023-05-10T15:37:41.649Z,7.10
2023-05-10T15:42:42.026Z,7.10
2023-05-10T15:47:41.965Z,6.90
2023-05-10T15:52:44.260Z,5.30
2023-05-10T15:57:49.515Z,4.10
2023-05-10T16:02:53.275Z,5.50
2023-05-10T16:07:55.253Z,6.30
2023-05-10T16:12:56.346Z,5.80
2023-05-10T16:17:57.297Z,5.70
2023-05-10T16:23:02.180Z,5.50
2023-05-10T16:28:02.627Z,6.40
2023-05-10T16:33:07.435Z,6.80
2023-05-10T16:38:08.835Z,6.70
2023-05-10T16:43:08.788Z,5.00
2023-05-10T16:48:10.991Z,5.10
2023-05-10T16:53:12.675Z,4.30
2023-05-10T16:58:14.090Z,6.30
2023-05-10T17:03:28.308Z,4.90
2023-05-10T17:08:28.084Z,4.40
2023-05-10T17:13:30.392Z,6.50
2023-05-10T17:18:31.731Z,6.30
2023-05-10T17:23:31.924Z,5.40
2023-05-10T17:28:35.635Z,4.30
2023-05-10T17:33:47.609Z,5.70
2023-05-10T17:38:50.691Z,5.50
2023-05-10T17:43:52.209Z,4.60
2023-05-10T17:48:53.650Z,4.00
2023-05-10T17:53:54.441Z,5.80
2023-05-10T17:59:02.854Z,5.80
2023-05-10T18:04:06.428Z,4.50
2023-05-10T18:09:08.850Z,5.50
2023-05-10T18:14:12.709Z,5.90
2023-05-10T18:19:12.493Z,6.30
2023-05-10T18:24:13.577Z,5.80
2023-05-10T18:29:15.699Z,6.90
2023-05-10T18:34:23.997Z,5.70
2023-05-10T18:39:26.908Z,9.10
2023-05-10T18:44:35.739Z,7.10
2023-05-10T18:49:36.966Z,5.90
2023-05-10T18:54:36.600Z,6.70
2023-05-10T18:59:44.858Z,5.10
2023-05-10T19:04:44.530Z,6.10
2023-05-10T19:09:44.662Z,6.10
2023-05-10T19:14:45.152Z,7.50
2023-05-10T19:19:49.723Z,7.00
2023-05-10T19:24:50.141Z,6.90
2023-05-10T19:29:52.215Z,4.60
2023-05-10T19:34:55.410Z,8.40
2023-05-10T19:39:56.770Z,7.60
2023-05-10T19:45:00.821Z,6.00
2023-05-10T19:50:00.094Z,6.80
2023-05-10T19:54:59.885Z,5.70
2023-05-10T19:59:59.262Z,4.70
2023-05-10T20:05:00.629Z,5.80
2023-05-10T20:10:00.162Z,7.90
2023-05-10T20:15:00.777Z,5.40
2023-05-10T20:20:00.783Z,6.30
2023-05-10T20:25:01.693Z,8.30
2023-05-10T20:30:01.237Z,6.50
2023-05-10T20:35:01.631Z,7.00
2023-05-10T20:40:00.977Z,8.10
2023-05-10T20:45:02.481Z,7.60
2023-05-10T20:50:04.331Z,10.10
2023-05-10T20:55:03.914Z,8.80
2023-05-10T21:00:04.074Z,9.40
2023-05-10T21:05:05.479Z,11.30
2023-05-10T21:10:05.057Z,9.50
2023-05-10T21:15:04.455Z,12.00
2023-05-10T21:20:04.015Z,11.70
2023-05-10T21:25:05.243Z,11.60
2023-05-10T21:30:04.488Z,9.30
2023-05-10T21:35:04.467Z,8.80
2023-05-10T21:40:05.176Z,10.90
2023-05-10T21:45:04.071Z,8.20
2023-05-10T21:50:04.358Z,11.40
2023-05-10T21:55:04.642Z,8.20
2023-05-10T22:00:17.029Z,11.10
2023-05-10T22:05:19.353Z,7.50
2023-05-10T22:10:19.423Z,7.80
2023-05-10T22:15:20.006Z,9.80
2023-05-10T22:20:25.874Z,7.70
2023-05-10T22:25:26.673Z,6.50
2023-05-10T22:30:27.236Z,5.90
2023-05-10T22:35:26.424Z,7.80
2023-05-10T22:40:25.837Z,5.00
2023-05-10T22:45:25.950Z,7.30
2023-05-10T22:50:25.490Z,6.50
2023-05-10T22:55:25.742Z,6.00
2023-05-10T23:00:25.343Z,6.10
2023-05-10T23:05:25.343Z,5.70
2023-05-10T23:10:24.914Z,6.80
2023-05-10T23:15:24.505Z,6.00
2023-05-10T23:20:24.309Z,6.00
2023-05-10T23:25:23.642Z,6.70
2023-05-10T23:30:23.282Z,7.30
2023-05-10T23:35:23.152Z,8.20
2023-05-10T23:40:23.596Z,9.80
2023-05-10T23:45:23.117Z,6.20
2023-05-10T23:50:23.176Z,5.30
2023-05-10T23:55:24.881Z,7.40
